sensor_id;sensor_type;location;lat;lon;timestamp;P1;durP1;ratioP1;P2;durP2;ratioP2
10232;SDS011;5161;48.174;11.756;2023-07-29T00:02:23;4.60;;;3.97;;
10232;SDS011;5161;48.174;11.756;2023-07-29T00:04:49;5.77;;;4.00;;
10232;SDS011;5161;48.174;11.756;2023-07-29T00:07:14;3.90;;;3.50;;
10232;SDS011;5161;48.174;11.756;2023-07-29T00:09:40;4.30;;;3.90;;
10232;SDS011;5161;48.174;11.756;2023-07-29T00:12:05;3.90;;;3.47;;
10232;SDS011;5161;48.174;11.756;2023-07-29T00:14:31;3.83;;;3.53;;
10232;SDS011;5161;48.174;11.756;2023-07-29T00:16:57;4.17;;;3.60;;
10232;SDS011;5161;48.174;11.756;2023-07-29T00:19:22;3.43;;;3.20;;
10232;SDS011;5161;48.174;11.756;2023-07-29T00:21:48;3.83;;;3.53;;
10232;SDS011;5161;48.174;11.756;2023-07-29T00:24:14;4.17;;;3.70;;
10232;SDS011;5161;48.174;11.756;2023-07-29T00:26:39;4.03;;;3.70;;
10232;SDS011;5161;48.174;11.756;2023-07-29T00:29:05;3.73;;;3.43;;
10232;SDS011;5161;48.174;11.756;2023-07-29T00:31:30;4.87;;;3.73;;
10232;SDS011;5161;48.174;11.756;2023-07-29T00:33:56;3.83;;;3.50;;
10232;SDS011;5161;48.174;11.756;2023-07-29T00:36:23;4.63;;;3.50;;
10232;SDS011;5161;48.174;11.756;2023-07-29T00:38:48;3.83;;;3.53;;
10232;SDS011;5161;48.174;11.756;2023-07-29T00:41:14;3.70;;;3.43;;
10232;SDS011;5161;48.174;11.756;2023-07-29T00:43:40;4.00;;;3.60;;
10232;SDS011;5161;48.174;11.756;2023-07-29T00:46:06;3.87;;;3.40;;
10232;SDS011;5161;48.174;11.756;2023-07-29T00:48:33;5.03;;;3.70;;
10232;SDS011;5161;48.174;11.756;2023-07-29T00:50:59;3.50;;;3.30;;
10232;SDS011;5161;48.174;11.756;2023-07-29T00:53:24;4.40;;;3.70;;
10232;SDS011;5161;48.174;11.756;2023-07-29T00:55:50;4.93;;;3.33;;
10232;SDS011;5161;48.174;11.756;2023-07-29T00:58:15;3.80;;;3.60;;
10232;SDS011;5161;48.174;11.756;2023-07-29T01:00:41;4.10;;;3.80;;
10232;SDS011;5161;48.174;11.756;2023-07-29T01:03:07;4.50;;;3.70;;
10232;SDS011;5161;48.174;11.756;2023-07-29T01:05:36;3.80;;;3.50;;
10232;SDS011;5161;48.174;11.756;2023-07-29T01:08:20;5.73;;;3.50;;
10232;SDS011;5161;48.174;11.756;2023-07-29T01:13:44;4.00;;;3.70;;
10232;SDS011;5161;48.174;11.756;2023-07-29T01:16:17;3.67;;;3.37;;
10232;SDS011;5161;48.174;11.756;2023-07-29T01:18:47;5.87;;;3.77;;
10232;SDS011;5161;48.174;11.756;2023-07-29T01:21:13;4.27;;;3.57;;
10232;SDS011;5161;48.174;11.756;2023-07-29T01:23:40;3.90;;;3.60;;
10232;SDS011;5161;48.174;11.756;2023-07-29T01:26:06;4.47;;;3.73;;
10232;SDS011;5161;48.174;11.756;2023-07-29T01:28:32;3.73;;;3.30;;
10232;SDS011;5161;48.174;11.756;2023-07-29T01:31:10;4.20;;;3.47;;
10232;SDS011;5161;48.174;11.756;2023-07-29T01:33:47;4.77;;;3.70;;
10232;SDS011;5161;48.174;11.756;2023-07-29T01:36:18;4.00;;;3.67;;
10232;SDS011;5161;48.174;11.756;2023-07-29T01:38:48;5.47;;;3.67;;
10232;SDS011;5161;48.174;11.756;2023-07-29T01:41:15;3.53;;;3.27;;
10232;SDS011;5161;48.174;11.756;2023-07-29T01:43:42;3.80;;;3.50;;
10232;SDS011;5161;48.174;11.756;2023-07-29T01:46:12;4.70;;;3.53;;
10232;SDS011;5161;48.174;11.756;2023-07-29T01:48:38;3.77;;;3.50;;
10232;SDS011;5161;48.174;11.756;2023-07-29T01:51:04;5.00;;;3.67;;
10232;SDS011;5161;48.174;11.756;2023-07-29T01:53:31;3.57;;;3.27;;
10232;SDS011;5161;48.174;11.756;2023-07-29T01:55:56;3.77;;;3.50;;
10232;SDS011;5161;48.174;11.756;2023-07-29T01:58:22;4.17;;;3.70;;
10232;SDS011;5161;48.174;11.756;2023-07-29T02:00:48;4.40;;;3.60;;
10232;SDS011;5161;48.174;11.756;2023-07-29T02:03:14;3.90;;;3.60;;
10232;SDS011;5161;48.174;11.756;2023-07-29T02:05:39;4.27;;;3.93;;
10232;SDS011;5161;48.174;11.756;2023-07-29T02:08:06;4.03;;;3.70;;
10232;SDS011;5161;48.174;11.756;2023-07-29T02:10:32;4.10;;;3.80;;
10232;SDS011;5161;48.174;11.756;2023-07-29T02:12:57;4.40;;;3.40;;
10232;SDS011;5161;48.174;11.756;2023-07-29T02:15:23;3.50;;;3.30;;
10232;SDS011;5161;48.174;11.756;2023-07-29T02:17:49;3.80;;;3.50;;
10232;SDS011;5161;48.174;11.756;2023-07-29T02:20:16;4.17;;;3.87;;
10232;SDS011;5161;48.174;11.756;2023-07-29T02:22:42;3.97;;;3.60;;
10232;SDS011;5161;48.174;11.756;2023-07-29T02:25:07;4.03;;;3.73;;
10232;SDS011;5161;48.174;11.756;2023-07-29T02:27:33;3.90;;;3.60;;
10232;SDS011;5161;48.174;11.756;2023-07-29T02:29:58;4.07;;;3.67;;
10232;SDS011;5161;48.174;11.756;2023-07-29T02:32:24;4.00;;;3.70;;
10232;SDS011;5161;48.174;11.756;2023-07-29T02:34:50;3.83;;;3.57;;
10232;SDS011;5161;48.174;11.756;2023-07-29T02:37:15;4.17;;;3.77;;
10232;SDS011;5161;48.174;11.756;2023-07-29T02:39:41;4.53;;;3.77;;
10232;SDS011;5161;48.174;11.756;2023-07-29T02:42:07;3.77;;;3.47;;
10232;SDS011;5161;48.174;11.756;2023-07-29T02:44:32;4.20;;;3.70;;
10232;SDS011;5161;48.174;11.756;2023-07-29T02:46:58;3.73;;;3.37;;
10232;SDS011;5161;48.174;11.756;2023-07-29T02:49:23;3.90;;;3.60;;
10232;SDS011;5161;48.174;11.756;2023-07-29T02:51:49;4.00;;;3.70;;
10232;SDS011;5161;48.174;11.756;2023-07-29T02:54:15;4.70;;;3.50;;
10232;SDS011;5161;48.174;11.756;2023-07-29T02:56:40;3.97;;;3.67;;
10232;SDS011;5161;48.174;11.756;2023-07-29T02:59:06;3.70;;;3.40;;
10232;SDS011;5161;48.174;11.756;2023-07-29T03:01:31;5.17;;;3.53;;
10232;SDS011;5161;48.174;11.756;2023-07-29T03:03:57;4.10;;;3.67;;
10232;SDS011;5161;48.174;11.756;2023-07-29T03:06:23;4.30;;;3.90;;
10232;SDS011;5161;48.174;11.756;2023-07-29T03:08:48;3.50;;;3.30;;
10232;SDS011;5161;48.174;11.756;2023-07-29T03:11:15;5.50;;;3.90;;
10232;SDS011;5161;48.174;11.756;2023-07-29T03:13:41;4.13;;;3.73;;
10232;SDS011;5161;48.174;11.756;2023-07-29T03:16:13;4.10;;;3.50;;
10232;SDS011;5161;48.174;11.756;2023-07-29T03:18:41;4.53;;;3.53;;
10232;SDS011;5161;48.174;11.756;2023-07-29T03:21:07;3.87;;;3.43;;
10232;SDS011;5161;48.174;11.756;2023-07-29T03:23:34;4.20;;;3.50;;
10232;SDS011;5161;48.174;11.756;2023-07-29T03:26:00;3.67;;;3.33;;
10232;SDS011;5161;48.174;11.756;2023-07-29T03:28:32;5.73;;;3.60;;
10232;SDS011;5161;48.174;11.756;2023-07-29T03:30:58;4.17;;;3.37;;
10232;SDS011;5161;48.174;11.756;2023-07-29T03:33:24;3.77;;;3.53;;
10232;SDS011;5161;48.174;11.756;2023-07-29T03:35:51;3.87;;;3.47;;
10232;SDS011;5161;48.174;11.756;2023-07-29T03:38:17;3.57;;;3.27;;
10232;SDS011;5161;48.174;11.756;2023-07-29T03:40:42;3.30;;;3.10;;
10232;SDS011;5161;48.174;11.756;2023-07-29T03:43:08;4.00;;;3.60;;
10232;SDS011;5161;48.174;11.756;2023-07-29T03:45:35;3.70;;;3.40;;
10232;SDS011;5161;48.174;11.756;2023-07-29T03:48:01;3.63;;;3.30;;
10232;SDS011;5161;48.174;11.756;2023-07-29T03:50:28;3.77;;;3.13;;
10232;SDS011;5161;48.174;11.756;2023-07-29T03:52:54;3.47;;;3.17;;
10232;SDS011;5161;48.174;11.756;2023-07-29T03:55:20;5.57;;;3.47;;
10232;SDS011;5161;48.174;11.756;2023-07-29T03:57:46;3.67;;;3.30;;
10232;SDS011;5161;48.174;11.756;2023-07-29T04:00:12;3.20;;;3.00;;
10232;SDS011;5161;48.174;11.756;2023-07-29T04:02:38;4.27;;;3.27;;
10232;SDS011;5161;48.174;11.756;2023-07-29T04:05:04;3.40;;;3.10;;
10232;SDS011;5161;48.174;11.756;2023-07-29T04:07:30;3.57;;;3.27;;
10232;SDS011;5161;48.174;11.756;2023-07-29T04:09:56;3.40;;;3.10;;
10232;SDS011;5161;48.174;11.756;2023-07-29T04:12:22;3.60;;;3.10;;
10232;SDS011;5161;48.174;11.756;2023-07-29T04:14:48;4.27;;;3.00;;
10232;SDS011;5161;48.174;11.756;2023-07-29T04:17:13;3.97;;;2.87;;
10232;SDS011;5161;48.174;11.756;2023-07-29T04:19:39;3.77;;;2.90;;
10232;SDS011;5161;48.174;11.756;2023-07-29T04:22:05;3.40;;;3.10;;
10232;SDS011;5161;48.174;11.756;2023-07-29T04:24:30;3.50;;;2.90;;
10232;SDS011;5161;48.174;11.756;2023-07-29T04:26:56;4.60;;;3.10;;
10232;SDS011;5161;48.174;11.756;2023-07-29T04:29:21;3.33;;;2.80;;
10232;SDS011;5161;48.174;11.756;2023-07-29T04:31:50;3.30;;;3.10;;
10232;SDS011;5161;48.174;11.756;2023-07-29T04:34:16;3.30;;;3.10;;
10232;SDS011;5161;48.174;11.756;2023-07-29T04:36:43;3.23;;;2.73;;
10232;SDS011;5161;48.174;11.756;2023-07-29T04:39:08;3.00;;;2.80;;
10232;SDS011;5161;48.174;11.756;2023-07-29T04:41:34;3.13;;;2.90;;
10232;SDS011;5161;48.174;11.756;2023-07-29T04:43:59;3.10;;;2.90;;
10232;SDS011;5161;48.174;11.756;2023-07-29T04:46:25;2.77;;;2.67;;
10232;SDS011;5161;48.174;11.756;2023-07-29T04:48:50;3.00;;;2.80;;
10232;SDS011;5161;48.174;11.756;2023-07-29T04:51:16;2.90;;;2.70;;
10232;SDS011;5161;48.174;11.756;2023-07-29T04:53:41;3.30;;;3.07;;
10232;SDS011;5161;48.174;11.756;2023-07-29T04:56:07;3.13;;;2.90;;
10232;SDS011;5161;48.174;11.756;2023-07-29T04:58:33;3.20;;;2.90;;
10232;SDS011;5161;48.174;11.756;2023-07-29T05:01:00;3.20;;;3.00;;
10232;SDS011;5161;48.174;11.756;2023-07-29T05:03:26;3.17;;;2.90;;
10232;SDS011;5161;48.174;11.756;2023-07-29T05:05:52;4.47;;;2.73;;
10232;SDS011;5161;48.174;11.756;2023-07-29T05:08:19;3.20;;;2.90;;
10232;SDS011;5161;48.174;11.756;2023-07-29T05:10:48;4.17;;;3.10;;
10232;SDS011;5161;48.174;11.756;2023-07-29T05:13:15;3.20;;;3.00;;
10232;SDS011;5161;48.174;11.756;2023-07-29T05:15:40;3.20;;;3.00;;
10232;SDS011;5161;48.174;11.756;2023-07-29T05:18:06;3.00;;;2.80;;
10232;SDS011;5161;48.174;11.756;2023-07-29T05:20:31;3.20;;;3.00;;
10232;SDS011;5161;48.174;11.756;2023-07-29T05:22:57;3.40;;;3.10;;
10232;SDS011;5161;48.174;11.756;2023-07-29T05:25:22;2.87;;;2.70;;
10232;SDS011;5161;48.174;11.756;2023-07-29T05:27:48;3.23;;;3.00;;
10232;SDS011;5161;48.174;11.756;2023-07-29T05:30:14;3.33;;;2.90;;
10232;SDS011;5161;48.174;11.756;2023-07-29T05:32:39;3.47;;;3.10;;
10232;SDS011;5161;48.174;11.756;2023-07-29T05:35:05;6.50;;;2.87;;
10232;SDS011;5161;48.174;11.756;2023-07-29T05:37:31;3.53;;;2.80;;
10232;SDS011;5161;48.174;11.756;2023-07-29T05:39:56;10.97;;;2.77;;
10232;SDS011;5161;48.174;11.756;2023-07-29T05:42:22;3.87;;;2.40;;
10232;SDS011;5161;48.174;11.756;2023-07-29T05:44:48;2.70;;;2.50;;
10232;SDS011;5161;48.174;11.756;2023-07-29T05:47:13;2.73;;;2.53;;
10232;SDS011;5161;48.174;11.756;2023-07-29T05:49:39;2.73;;;2.60;;
10232;SDS011;5161;48.174;11.756;2023-07-29T05:52:04;2.93;;;2.63;;
10232;SDS011;5161;48.174;11.756;2023-07-29T05:54:30;3.40;;;2.70;;
10232;SDS011;5161;48.174;11.756;2023-07-29T05:56:56;2.80;;;2.70;;
10232;SDS011;5161;48.174;11.756;2023-07-29T05:59:21;3.63;;;2.90;;
10232;SDS011;5161;48.174;11.756;2023-07-29T06:01:47;2.87;;;2.67;;
10232;SDS011;5161;48.174;11.756;2023-07-29T06:04:12;3.27;;;2.97;;
10232;SDS011;5161;48.174;11.756;2023-07-29T06:06:38;4.13;;;2.97;;
10232;SDS011;5161;48.174;11.756;2023-07-29T06:09:03;5.47;;;2.80;;
10232;SDS011;5161;48.174;11.756;2023-07-29T06:11:29;2.93;;;2.73;;
10232;SDS011;5161;48.174;11.756;2023-07-29T06:13:55;3.33;;;3.03;;
10232;SDS011;5161;48.174;11.756;2023-07-29T06:16:20;3.40;;;2.80;;
10232;SDS011;5161;48.174;11.756;2023-07-29T06:18:46;5.90;;;3.07;;
10232;SDS011;5161;48.174;11.756;2023-07-29T06:21:11;6.33;;;2.90;;
10232;SDS011;5161;48.174;11.756;2023-07-29T06:23:41;3.40;;;3.10;;
10232;SDS011;5161;48.174;11.756;2023-07-29T06:26:08;2.87;;;2.67;;
10232;SDS011;5161;48.174;11.756;2023-07-29T06:28:33;3.03;;;2.70;;
10232;SDS011;5161;48.174;11.756;2023-07-29T06:30:59;3.10;;;2.90;;
10232;SDS011;5161;48.174;11.756;2023-07-29T06:33:25;4.53;;;2.63;;
10232;SDS011;5161;48.174;11.756;2023-07-29T06:35:50;5.10;;;2.93;;
10232;SDS011;5161;48.174;11.756;2023-07-29T06:38:16;2.90;;;2.70;;
10232;SDS011;5161;48.174;11.756;2023-07-29T06:40:46;4.83;;;3.00;;
10232;SDS011;5161;48.174;11.756;2023-07-29T06:43:12;4.57;;;3.00;;
10232;SDS011;5161;48.174;11.756;2023-07-29T06:45:38;4.20;;;3.00;;
10232;SDS011;5161;48.174;11.756;2023-07-29T06:48:03;5.50;;;2.80;;
10232;SDS011;5161;48.174;11.756;2023-07-29T06:50:29;3.83;;;2.90;;
10232;SDS011;5161;48.174;11.756;2023-07-29T06:52:55;6.37;;;2.93;;
10232;SDS011;5161;48.174;11.756;2023-07-29T06:55:20;2.93;;;2.73;;
10232;SDS011;5161;48.174;11.756;2023-07-29T06:57:46;4.13;;;2.90;;
10232;SDS011;5161;48.174;11.756;2023-07-29T07:00:11;3.20;;;3.00;;
10232;SDS011;5161;48.174;11.756;2023-07-29T07:02:37;3.23;;;3.03;;
10232;SDS011;5161;48.174;11.756;2023-07-29T07:05:02;3.77;;;2.63;;
10232;SDS011;5161;48.174;11.756;2023-07-29T07:07:28;2.77;;;2.57;;
10232;SDS011;5161;48.174;11.756;2023-07-29T07:09:54;3.57;;;2.73;;
10232;SDS011;5161;48.174;11.756;2023-07-29T07:12:19;2.80;;;2.40;;
10232;SDS011;5161;48.174;11.756;2023-07-29T07:14:45;3.03;;;2.87;;
10232;SDS011;5161;48.174;11.756;2023-07-29T07:17:10;4.10;;;2.70;;
10232;SDS011;5161;48.174;11.756;2023-07-29T07:19:36;3.30;;;3.00;;
10232;SDS011;5161;48.174;11.756;2023-07-29T07:22:02;4.13;;;2.90;;
10232;SDS011;5161;48.174;11.756;2023-07-29T07:24:27;3.90;;;2.93;;
10232;SDS011;5161;48.174;11.756;2023-07-29T07:26:53;5.00;;;3.00;;
10232;SDS011;5161;48.174;11.756;2023-07-29T07:29:19;5.77;;;3.13;;
10232;SDS011;5161;48.174;11.756;2023-07-29T07:31:49;9.37;;;3.57;;
10232;SDS011;5161;48.174;11.756;2023-07-29T07:34:17;5.50;;;3.10;;
10232;SDS011;5161;48.174;11.756;2023-07-29T07:36:43;4.43;;;3.13;;
10232;SDS011;5161;48.174;11.756;2023-07-29T07:39:08;3.07;;;2.80;;
10232;SDS011;5161;48.174;11.756;2023-07-29T07:41:34;3.53;;;3.20;;
10232;SDS011;5161;48.174;11.756;2023-07-29T07:44:00;3.33;;;3.03;;
10232;SDS011;5161;48.174;11.756;2023-07-29T07:46:25;6.27;;;3.77;;
10232;SDS011;5161;48.174;11.756;2023-07-29T07:48:51;8.43;;;3.10;;
10232;SDS011;5161;48.174;11.756;2023-07-29T07:51:16;4.17;;;3.30;;
10232;SDS011;5161;48.174;11.756;2023-07-29T07:53:42;3.60;;;3.30;;
10232;SDS011;5161;48.174;11.756;2023-07-29T07:56:07;5.30;;;3.83;;
10232;SDS011;5161;48.174;11.756;2023-07-29T07:58:33;3.93;;;3.63;;
10232;SDS011;5161;48.174;11.756;2023-07-29T08:01:05;4.87;;;3.23;;
10232;SDS011;5161;48.174;11.756;2023-07-29T08:03:32;3.83;;;3.53;;
10232;SDS011;5161;48.174;11.756;2023-07-29T08:05:57;3.63;;;3.37;;
10232;SDS011;5161;48.174;11.756;2023-07-29T08:08:23;3.53;;;3.23;;
10232;SDS011;5161;48.174;11.756;2023-07-29T08:10:50;3.77;;;3.47;;
10232;SDS011;5161;48.174;11.756;2023-07-29T08:13:17;4.87;;;4.17;;
10232;SDS011;5161;48.174;11.756;2023-07-29T08:15:45;4.03;;;3.67;;
10232;SDS011;5161;48.174;11.756;2023-07-29T08:18:11;4.07;;;3.77;;
10232;SDS011;5161;48.174;11.756;2023-07-29T08:20:37;4.30;;;3.77;;
10232;SDS011;5161;48.174;11.756;2023-07-29T08:23:03;4.93;;;3.80;;
10232;SDS011;5161;48.174;11.756;2023-07-29T08:25:29;3.93;;;3.63;;
10232;SDS011;5161;48.174;11.756;2023-07-29T08:27:54;4.53;;;3.90;;
10232;SDS011;5161;48.174;11.756;2023-07-29T08:30:20;4.53;;;3.60;;
10232;SDS011;5161;48.174;11.756;2023-07-29T08:32:48;6.63;;;4.00;;
10232;SDS011;5161;48.174;11.756;2023-07-29T08:35:14;4.50;;;4.10;;
10232;SDS011;5161;48.174;11.756;2023-07-29T08:37:39;4.40;;;4.00;;
10232;SDS011;5161;48.174;11.756;2023-07-29T08:40:05;4.10;;;3.70;;
10232;SDS011;5161;48.174;11.756;2023-07-29T08:42:32;4.40;;;4.07;;
10232;SDS011;5161;48.174;11.756;2023-07-29T08:45:06;4.50;;;3.87;;
10232;SDS011;5161;48.174;11.756;2023-07-29T08:47:33;4.23;;;3.93;;
10232;SDS011;5161;48.174;11.756;2023-07-29T08:49:59;3.93;;;3.63;;
10232;SDS011;5161;48.174;11.756;2023-07-29T08:52:26;4.10;;;3.80;;
10232;SDS011;5161;48.174;11.756;2023-07-29T08:54:54;4.73;;;4.27;;
10232;SDS011;5161;48.174;11.756;2023-07-29T08:57:20;4.20;;;3.80;;
10232;SDS011;5161;48.174;11.756;2023-07-29T08:59:46;3.83;;;3.63;;
10232;SDS011;5161;48.174;11.756;2023-07-29T09:02:12;4.23;;;3.93;;
10232;SDS011;5161;48.174;11.756;2023-07-29T09:04:38;3.73;;;3.43;;
10232;SDS011;5161;48.174;11.756;2023-07-29T09:07:03;3.73;;;3.50;;
10232;SDS011;5161;48.174;11.756;2023-07-29T09:09:31;3.63;;;3.40;;
10232;SDS011;5161;48.174;11.756;2023-07-29T09:11:57;4.30;;;3.90;;
10232;SDS011;5161;48.174;11.756;2023-07-29T09:14:23;3.97;;;3.67;;
10232;SDS011;5161;48.174;11.756;2023-07-29T09:16:49;3.97;;;3.77;;
10232;SDS011;5161;48.174;11.756;2023-07-29T09:19:14;3.93;;;3.70;;
10232;SDS011;5161;48.174;11.756;2023-07-29T09:21:40;4.00;;;3.70;;
10232;SDS011;5161;48.174;11.756;2023-07-29T09:24:07;4.13;;;3.83;;
10232;SDS011;5161;48.174;11.756;2023-07-29T09:26:34;4.97;;;3.80;;
10232;SDS011;5161;48.174;11.756;2023-07-29T09:29:00;5.90;;;4.13;;
10232;SDS011;5161;48.174;11.756;2023-07-29T09:31:26;4.20;;;3.80;;
10232;SDS011;5161;48.174;11.756;2023-07-29T09:34:00;4.40;;;3.83;;
10232;SDS011;5161;48.174;11.756;2023-07-29T09:36:28;4.03;;;3.73;;
10232;SDS011;5161;48.174;11.756;2023-07-29T09:38:56;5.63;;;4.00;;
10232;SDS011;5161;48.174;11.756;2023-07-29T09:41:25;7.27;;;4.30;;
10232;SDS011;5161;48.174;11.756;2023-07-29T09:43:58;4.27;;;3.87;;
10232;SDS011;5161;48.174;11.756;2023-07-29T09:46:33;6.70;;;4.30;;
10232;SDS011;5161;48.174;11.756;2023-07-29T09:49:03;4.30;;;3.83;;
10232;SDS011;5161;48.174;11.756;2023-07-29T09:51:29;4.40;;;4.00;;
10232;SDS011;5161;48.174;11.756;2023-07-29T09:53:55;4.63;;;3.93;;
10232;SDS011;5161;48.174;11.756;2023-07-29T09:56:24;4.20;;;3.90;;
10232;SDS011;5161;48.174;11.756;2023-07-29T09:58:57;4.83;;;4.20;;
10232;SDS011;5161;48.174;11.756;2023-07-29T10:01:23;4.60;;;4.20;;
10232;SDS011;5161;48.174;11.756;2023-07-29T10:03:48;4.57;;;4.17;;
10232;SDS011;5161;48.174;11.756;2023-07-29T10:06:14;7.17;;;4.40;;
10232;SDS011;5161;48.174;11.756;2023-07-29T10:08:40;5.67;;;4.63;;
10232;SDS011;5161;48.174;11.756;2023-07-29T10:11:08;4.80;;;4.40;;
10232;SDS011;5161;48.174;11.756;2023-07-29T10:13:35;4.70;;;4.30;;
10232;SDS011;5161;48.174;11.756;2023-07-29T10:16:02;5.17;;;4.67;;
10232;SDS011;5161;48.174;11.756;2023-07-29T10:18:28;7.27;;;4.20;;
10232;SDS011;5161;48.174;11.756;2023-07-29T10:20:56;4.63;;;4.30;;
10232;SDS011;5161;48.174;11.756;2023-07-29T10:23:23;5.23;;;4.23;;
10232;SDS011;5161;48.174;11.756;2023-07-29T10:26:07;4.30;;;4.00;;
10232;SDS011;5161;48.174;11.756;2023-07-29T10:28:36;4.60;;;4.30;;
10232;SDS011;5161;48.174;11.756;2023-07-29T10:31:05;4.70;;;4.37;;
10232;SDS011;5161;48.174;11.756;2023-07-29T10:33:32;4.43;;;4.13;;
10232;SDS011;5161;48.174;11.756;2023-07-29T10:35:59;4.60;;;4.17;;
10232;SDS011;5161;48.174;11.756;2023-07-29T10:38:25;4.70;;;4.30;;
10232;SDS011;5161;48.174;11.756;2023-07-29T10:40:55;4.77;;;4.43;;
10232;SDS011;5161;48.174;11.756;2023-07-29T10:43:32;4.77;;;4.37;;
10232;SDS011;5161;48.174;11.756;2023-07-29T10:46:14;5.37;;;4.60;;
10232;SDS011;5161;48.174;11.756;2023-07-29T10:48:42;4.47;;;4.07;;
10232;SDS011;5161;48.174;11.756;2023-07-29T10:51:35;4.60;;;4.20;;
10232;SDS011;5161;48.174;11.756;2023-07-29T10:54:02;5.13;;;4.30;;
10232;SDS011;5161;48.174;11.756;2023-07-29T10:56:29;4.30;;;4.00;;
10232;SDS011;5161;48.174;11.756;2023-07-29T10:59:03;4.40;;;4.03;;
10232;SDS011;5161;48.174;11.756;2023-07-29T11:01:56;4.57;;;4.20;;
10232;SDS011;5161;48.174;11.756;2023-07-29T11:04:26;4.30;;;3.90;;
10232;SDS011;5161;48.174;11.756;2023-07-29T11:07:42;3.90;;;3.70;;
10232;SDS011;5161;48.174;11.756;2023-07-29T11:17:35;4.80;;;4.40;;
10232;SDS011;5161;48.174;11.756;2023-07-29T11:20:03;4.73;;;4.43;;
10232;SDS011;5161;48.174;11.756;2023-07-29T11:22:30;4.60;;;4.30;;
10232;SDS011;5161;48.174;11.756;2023-07-29T11:24:56;4.07;;;3.70;;
10232;SDS011;5161;48.174;11.756;2023-07-29T11:27:21;3.63;;;3.43;;
10232;SDS011;5161;48.174;11.756;2023-07-29T11:29:47;4.67;;;3.00;;
10232;SDS011;5161;48.174;11.756;2023-07-29T11:32:14;3.33;;;3.13;;
10232;SDS011;5161;48.174;11.756;2023-07-29T11:34:41;3.03;;;2.83;;
10232;SDS011;5161;48.174;11.756;2023-07-29T11:37:08;3.33;;;3.00;;
10232;SDS011;5161;48.174;11.756;2023-07-29T11:39:39;3.10;;;2.90;;
10232;SDS011;5161;48.174;11.756;2023-07-29T11:42:06;3.00;;;2.90;;
10232;SDS011;5161;48.174;11.756;2023-07-29T11:44:32;2.97;;;2.87;;
10232;SDS011;5161;48.174;11.756;2023-07-29T11:46:57;3.63;;;3.33;;
10232;SDS011;5161;48.174;11.756;2023-07-29T11:49:31;3.03;;;2.90;;
10232;SDS011;5161;48.174;11.756;2023-07-29T11:52:05;3.40;;;3.20;;
10232;SDS011;5161;48.174;11.756;2023-07-29T11:54:35;3.63;;;3.33;;
10232;SDS011;5161;48.174;11.756;2023-07-29T11:57:07;3.33;;;3.13;;
10232;SDS011;5161;48.174;11.756;2023-07-29T11:59:37;3.60;;;3.40;;
10232;SDS011;5161;48.174;11.756;2023-07-29T12:02:08;3.57;;;3.30;;
10232;SDS011;5161;48.174;11.756;2023-07-29T12:04:37;3.50;;;3.30;;
10232;SDS011;5161;48.174;11.756;2023-07-29T12:07:04;3.70;;;3.40;;
10232;SDS011;5161;48.174;11.756;2023-07-29T12:09:30;3.40;;;3.20;;
10232;SDS011;5161;48.174;11.756;2023-07-29T12:11:56;3.33;;;3.13;;
10232;SDS011;5161;48.174;11.756;2023-07-29T12:14:25;3.80;;;3.50;;
10232;SDS011;5161;48.174;11.756;2023-07-29T12:16:52;3.97;;;3.63;;
10232;SDS011;5161;48.174;11.756;2023-07-29T12:19:18;3.50;;;3.30;;
10232;SDS011;5161;48.174;11.756;2023-07-29T12:21:44;3.67;;;3.47;;
10232;SDS011;5161;48.174;11.756;2023-07-29T12:24:12;3.70;;;3.50;;
10232;SDS011;5161;48.174;11.756;2023-07-29T12:26:38;3.77;;;3.47;;
10232;SDS011;5161;48.174;11.756;2023-07-29T12:29:11;3.73;;;3.43;;
10232;SDS011;5161;48.174;11.756;2023-07-29T12:31:38;4.00;;;3.70;;
10232;SDS011;5161;48.174;11.756;2023-07-29T12:34:03;3.97;;;3.67;;
10232;SDS011;5161;48.174;11.756;2023-07-29T12:36:46;3.80;;;3.50;;
10232;SDS011;5161;48.174;11.756;2023-07-29T12:39:19;3.87;;;3.67;;
10232;SDS011;5161;48.174;11.756;2023-07-29T12:41:48;4.03;;;3.83;;
10232;SDS011;5161;48.174;11.756;2023-07-29T12:44:15;4.30;;;4.00;;
10232;SDS011;5161;48.174;11.756;2023-07-29T12:46:41;4.40;;;4.00;;
10232;SDS011;5161;48.174;11.756;2023-07-29T12:49:06;4.37;;;4.07;;
10232;SDS011;5161;48.174;11.756;2023-07-29T12:51:32;4.67;;;4.20;;
10232;SDS011;5161;48.174;11.756;2023-07-29T12:53:58;4.90;;;4.50;;
10232;SDS011;5161;48.174;11.756;2023-07-29T12:56:23;4.40;;;4.10;;
10232;SDS011;5161;48.174;11.756;2023-07-29T12:58:49;4.10;;;3.90;;
10232;SDS011;5161;48.174;11.756;2023-07-29T13:01:15;4.10;;;3.90;;
10232;SDS011;5161;48.174;11.756;2023-07-29T13:03:43;6.60;;;4.10;;
10232;SDS011;5161;48.174;11.756;2023-07-29T13:06:10;5.50;;;4.37;;
10232;SDS011;5161;48.174;11.756;2023-07-29T13:08:35;7.50;;;5.07;;
10232;SDS011;5161;48.174;11.756;2023-07-29T13:11:01;8.07;;;5.50;;
10232;SDS011;5161;48.174;11.756;2023-07-29T13:13:27;5.13;;;4.63;;
10232;SDS011;5161;48.174;11.756;2023-07-29T13:15:52;6.00;;;4.30;;
10232;SDS011;5161;48.174;11.756;2023-07-29T13:18:18;4.60;;;4.20;;
10232;SDS011;5161;48.174;11.756;2023-07-29T13:20:44;5.73;;;4.13;;
10232;SDS011;5161;48.174;11.756;2023-07-29T13:23:09;4.60;;;4.20;;
10232;SDS011;5161;48.174;11.756;2023-07-29T13:25:35;4.93;;;4.10;;
10232;SDS011;5161;48.174;11.756;2023-07-29T13:28:00;5.67;;;3.80;;
10232;SDS011;5161;48.174;11.756;2023-07-29T13:30:26;4.40;;;3.97;;
10232;SDS011;5161;48.174;11.756;2023-07-29T13:32:51;4.70;;;3.57;;
10232;SDS011;5161;48.174;11.756;2023-07-29T13:35:17;4.73;;;3.93;;
10232;SDS011;5161;48.174;11.756;2023-07-29T13:37:42;4.10;;;3.70;;
10232;SDS011;5161;48.174;11.756;2023-07-29T13:40:08;4.80;;;4.03;;
10232;SDS011;5161;48.174;11.756;2023-07-29T13:42:34;5.00;;;4.17;;
10232;SDS011;5161;48.174;11.756;2023-07-29T13:45:00;5.53;;;4.33;;
10232;SDS011;5161;48.174;11.756;2023-07-29T13:47:25;4.37;;;4.03;;
10232;SDS011;5161;48.174;11.756;2023-07-29T13:49:51;4.97;;;4.47;;
10232;SDS011;5161;48.174;11.756;2023-07-29T13:52:16;5.20;;;4.30;;
10232;SDS011;5161;48.174;11.756;2023-07-29T13:54:42;4.27;;;4.07;;
10232;SDS011;5161;48.174;11.756;2023-07-29T13:57:07;4.47;;;4.07;;
10232;SDS011;5161;48.174;11.756;2023-07-29T13:59:35;5.27;;;4.77;;
10232;SDS011;5161;48.174;11.756;2023-07-29T14:02:03;4.70;;;4.40;;
10232;SDS011;5161;48.174;11.756;2023-07-29T14:04:29;4.80;;;4.40;;
10232;SDS011;5161;48.174;11.756;2023-07-29T14:06:55;5.37;;;4.60;;
10232;SDS011;5161;48.174;11.756;2023-07-29T14:09:21;5.00;;;4.50;;
10232;SDS011;5161;48.174;11.756;2023-07-29T14:11:46;6.50;;;4.83;;
10232;SDS011;5161;48.174;11.756;2023-07-29T14:14:12;5.27;;;4.77;;
10232;SDS011;5161;48.174;11.756;2023-07-29T14:16:37;4.73;;;4.33;;
10232;SDS011;5161;48.174;11.756;2023-07-29T14:19:04;5.33;;;4.50;;
10232;SDS011;5161;48.174;11.756;2023-07-29T14:21:29;4.90;;;4.50;;
10232;SDS011;5161;48.174;11.756;2023-07-29T14:23:55;4.87;;;3.87;;
10232;SDS011;5161;48.174;11.756;2023-07-29T14:26:20;4.93;;;4.53;;
10232;SDS011;5161;48.174;11.756;2023-07-29T14:28:46;4.97;;;4.47;;
10232;SDS011;5161;48.174;11.756;2023-07-29T14:31:12;6.00;;;4.23;;
10232;SDS011;5161;48.174;11.756;2023-07-29T14:33:38;6.57;;;4.40;;
10232;SDS011;5161;48.174;11.756;2023-07-29T14:36:04;5.03;;;4.37;;
10232;SDS011;5161;48.174;11.756;2023-07-29T14:38:29;4.70;;;4.40;;
10232;SDS011;5161;48.174;11.756;2023-07-29T14:40:55;5.20;;;4.40;;
10232;SDS011;5161;48.174;11.756;2023-07-29T14:43:21;4.70;;;4.30;;
10232;SDS011;5161;48.174;11.756;2023-07-29T14:45:48;5.33;;;4.83;;
10232;SDS011;5161;48.174;11.756;2023-07-29T14:48:13;4.87;;;4.50;;
10232;SDS011;5161;48.174;11.756;2023-07-29T14:50:39;5.40;;;4.50;;
10232;SDS011;5161;48.174;11.756;2023-07-29T14:53:05;6.90;;;4.50;;
10232;SDS011;5161;48.174;11.756;2023-07-29T14:59:21;5.10;;;4.70;;
10232;SDS011;5161;48.174;11.756;2023-07-29T15:05:00;5.20;;;4.80;;